Time;durP1;ratioP1;P1;durP2;ratioP2;P2;SDS_P1;SDS_P2;PMS_P1;PMS_P2;Temp;Humidity;BMP_temperature;BMP_pressure;BME280_temperature;BME280_humidity;BME280_pressure;Samples;Min_cycle;Max_cycle;Signal;HPM_P1;HPM_P2
2022/03/26 00:00:46;;;;;;;40.45;19.17;;;;;;;6.87;71.90;103323.31;5025338;28;20087;-64
2022/03/26 00:03:13;;;;;;;38.28;19.60;;;;;;;6.82;72.05;103319.69;5026030;28;20426;-64
2022/03/26 00:05:39;;;;;;;40.20;19.45;;;;;;;6.85;71.93;103321.47;5024849;28;20438;-65
2022/03/26 00:08:04;;;;;;;40.58;18.92;;;;;;;6.87;71.93;103322.41;5026765;28;20018;-65
2022/03/26 00:10:30;;;;;;;39.50;20.55;;;;;;;6.86;72.13;103325.88;5026509;28;20029;-65
2022/03/26 00:12:57;;;;;;;40.42;18.50;;;;;;;6.85;72.22;103326.72;5025470;28;20510;-65
2022/03/26 00:15:22;;;;;;;42.35;19.10;;;;;;;6.79;72.00;103325.75;5026300;28;20094;-65
2022/03/26 00:17:48;;;;;;;42.88;19.45;;;;;;;6.76;72.21;103325.69;5025603;28;20419;-64
2022/03/26 00:20:13;;;;;;;34.17;18.83;;;;;;;6.76;72.27;103324.78;5024554;28;20032;-64
2022/03/26 00:22:38;;;;;;;49.50;20.33;;;;;;;6.74;72.63;103324.75;5026313;28;20037;-67
2022/03/26 00:25:04;;;;;;;33.88;20.00;;;;;;;6.75;72.50;103326.53;5025817;28;20026;-64
2022/03/26 00:27:30;;;;;;;37.03;20.35;;;;;;;6.72;72.51;103329.09;5025746;28;20439;-64
2022/03/26 00:29:56;;;;;;;40.35;21.23;;;;;;;6.65;73.08;103319.31;5008522;28;20017;-65
2022/03/26 00:32:22;;;;;;;43.08;20.23;;;;;;;6.66;72.87;103321.97;5024928;28;20099;-65
2022/03/26 00:34:47;;;;;;;38.58;18.98;;;;;;;6.68;72.54;103321.97;5025598;28;20515;-64
2022/03/26 00:37:13;;;;;;;44.25;19.80;;;;;;;6.63;73.02;103328.88;5024584;28;20068;-65
2022/03/26 00:39:39;;;;;;;45.95;23.00;;;;;;;6.62;73.16;103329.72;5025618;28;20037;-64
2022/03/26 00:42:05;;;;;;;38.08;20.25;;;;;;;6.54;73.21;103330.41;5025576;28;20025;-65
2022/03/26 00:44:31;;;;;;;43.88;21.75;;;;;;;6.50;73.58;103327.72;5025567;28;20045;-64
2022/03/26 00:46:56;;;;;;;44.58;21.58;;;;;;;6.48;73.81;103330.28;5024913;28;20080;-64
2022/03/26 00:49:21;;;;;;;46.00;20.98;;;;;;;6.47;74.03;103338.97;5024692;28;20105;-62
2022/03/26 00:51:47;;;;;;;43.05;21.23;;;;;;;6.46;73.94;103339.84;5024566;28;20120;-64
2022/03/26 00:54:12;;;;;;;45.47;22.60;;;;;;;6.48;74.17;103334.63;5024842;28;20052;-64
2022/03/26 00:56:39;;;;;;;53.05;23.63;;;;;;;6.43;74.44;103343.28;5006844;28;20045;-64
2022/03/26 00:59:05;;;;;;;40.30;21.98;;;;;;;6.43;74.55;103347.63;5025300;28;20034;-65
2022/03/26 01:01:31;;;;;;;39.05;22.98;;;;;;;6.42;74.88;103340.63;5025343;28;20112;-65
2022/03/26 01:03:57;;;;;;;48.03;23.30;;;;;;;6.40;74.86;103348.44;5024132;28;20037;-65
2022/03/26 01:06:23;;;;;;;46.42;21.85;;;;;;;6.38;75.18;103344.88;5024466;28;20459;-65
2022/03/26 01:08:49;;;;;;;44.28;23.40;;;;;;;6.35;75.14;103344.81;5025194;28;20014;-64
2022/03/26 01:11:14;;;;;;;51.25;25.70;;;;;;;6.35;75.44;103349.19;5024599;28;20099;-65
2022/03/26 01:13:39;;;;;;;41.10;21.70;;;;;;;6.34;75.55;103339.53;5025234;28;20043;-64
2022/03/26 01:16:06;;;;;;;49.50;21.95;;;;;;;6.37;75.72;103337.88;5024818;28;20029;-65
2022/03/26 01:18:31;;;;;;;42.80;22.83;;;;;;;6.31;75.82;103335.09;5024147;28;20037;-63
2022/03/26 01:20:56;;;;;;;48.78;22.02;;;;;;;6.30;75.93;103338.59;5024933;28;20132;-64
2022/03/26 01:23:22;;;;;;;48.10;23.40;;;;;;;6.28;76.03;103338.56;5024048;28;20113;-64
2022/03/26 01:25:47;;;;;;;42.25;22.23;;;;;;;6.27;76.27;103335.88;5007779;28;20522;-64
2022/03/26 01:28:14;;;;;;;46.70;22.85;;;;;;;6.22;76.37;103333.16;5024207;28;20017;-65
2022/03/26 01:30:40;;;;;;;45.60;22.08;;;;;;;6.16;76.54;103331.28;5022995;28;20568;-64
2022/03/26 01:33:05;;;;;;;49.35;22.80;;;;;;;6.13;76.90;103331.19;5025414;28;20542;-65
2022/03/26 01:35:30;;;;;;;56.15;25.13;;;;;;;6.13;77.24;103328.56;5023153;28;20035;-64
2022/03/26 01:37:56;;;;;;;47.42;25.15;;;;;;;6.10;77.57;103327.59;5024804;28;20427;-63
2022/03/26 01:40:21;;;;;;;44.45;23.83;;;;;;;6.13;77.33;103332.91;5023233;28;20108;-64
2022/03/26 01:42:46;;;;;;;47.80;23.95;;;;;;;6.15;77.08;103331.22;5028730;28;20376;-64
2022/03/26 01:45:13;;;;;;;50.30;24.25;;;;;;;6.12;77.27;103331.16;5028430;28;20519;-65
2022/03/26 01:47:38;;;;;;;51.80;25.50;;;;;;;6.17;77.36;103334.78;5028318;28;20026;-65
2022/03/26 01:50:04;;;;;;;59.22;26.33;;;;;;;6.13;77.85;103338.16;5028878;28;20036;-65
2022/03/26 01:52:30;;;;;;;47.53;24.42;;;;;;;6.13;77.45;103335.53;5025883;28;20480;-64
2022/03/26 01:54:55;;;;;;;47.22;24.27;;;;;;;6.12;77.63;103331.16;5027925;28;20041;-64
2022/03/26 01:57:21;;;;;;;57.40;25.95;;;;;;;6.11;77.77;103332.00;5027555;28;20029;-65
2022/03/26 01:59:46;;;;;;;53.40;25.20;;;;;;;6.08;77.79;103322.31;5027219;28;20033;-65
2022/03/26 02:02:11;;;;;;;55.05;25.85;;;;;;;6.12;77.81;103315.44;5027618;28;20033;-64
2022/03/26 02:04:37;;;;;;;48.00;25.27;;;;;;;6.12;77.94;103315.44;5009188;28;20064;-62
2022/03/26 02:07:04;;;;;;;50.45;26.38;;;;;;;6.16;78.06;103323.41;5027725;28;20072;-65
2022/03/26 02:09:36;;;;;;;48.55;25.63;;;;;;;6.13;78.34;103318.09;5027815;28;20025;-64
2022/03/26 02:12:23;;;;;;;56.97;27.92;;;;;;;6.15;78.14;103318.16;5027171;28;20492;-65
2022/03/26 02:14:49;;;;;;;57.55;26.33;;;;;;;6.16;78.26;103318.19;5027237;28;20130;-65
2022/03/26 02:17:14;;;;;;;55.97;25.30;;;;;;;6.16;78.17;103320.81;5026598;28;20051;-65
2022/03/26 02:19:39;;;;;;;52.50;25.30;;;;;;;6.09;78.31;103315.38;5008866;28;20044;-64
2022/03/26 02:22:05;;;;;;;57.17;26.10;;;;;;;6.09;78.32;103318.00;5027128;28;20029;-65
2022/03/26 02:24:30;;;;;;;62.00;26.45;;;;;;;6.05;78.71;103315.28;5010063;28;20103;-64
2022/03/26 02:26:56;;;;;;;58.20;26.52;;;;;;;6.09;78.47;103308.41;5027405;28;20040;-65
2022/03/26 02:29:21;;;;;;;58.83;27.70;;;;;;;6.06;78.94;103314.44;5026954;28;20040;-64
2022/03/26 02:31:46;;;;;;;55.42;25.98;;;;;;;6.05;78.98;103315.28;5026554;28;20036;-63
2022/03/26 02:34:12;;;;;;;59.78;28.10;;;;;;;6.06;78.95;103311.81;5026085;28;20530;-65
2022/03/26 02:36:37;;;;;;;55.88;27.15;;;;;;;6.06;79.18;103319.66;5027043;28;20017;-64
2022/03/26 02:39:04;;;;;;;58.08;26.75;;;;;;;6.01;79.45;103321.28;5026844;28;20018;-64
2022/03/26 02:41:29;;;;;;;52.00;26.00;;;;;;;6.02;79.13;103320.41;5026895;28;20029;-66
2022/03/26 02:43:54;;;;;;;59.80;27.45;;;;;;;5.97;79.43;103311.56;5028093;28;20037;-64
2022/03/26 02:46:20;;;;;;;58.28;26.80;;;;;;;5.95;79.58;103318.50;5026330;28;20029;-63
2022/03/26 02:48:45;;;;;;;61.92;26.73;;;;;;;5.88;79.78;103312.22;5027350;28;20037;-64
2022/03/26 02:51:11;;;;;;;58.92;26.70;;;;;;;5.82;80.12;103320.78;5026464;28;20439;-64
2022/03/26 02:53:36;;;;;;;61.15;26.80;;;;;;;5.72;80.64;103313.53;5027196;28;20480;-58
2022/03/26 02:56:01;;;;;;;61.50;29.05;;;;;;;5.67;81.03;103315.16;5027125;28;20033;-65
2022/03/26 02:58:27;;;;;;;71.15;28.95;;;;;;;5.65;81.26;103314.22;5026016;28;20116;-64
2022/03/26 03:00:52;;;;;;;61.35;29.85;;;;;;;5.66;81.18;103314.25;5027426;28;20026;-65
2022/03/26 03:03:18;;;;;;;62.10;29.63;;;;;;;5.66;81.48;103310.78;5026056;28;20557;-65
2022/03/26 03:05:46;;;;;;;61.30;29.42;;;;;;;5.61;81.46;103308.03;5009054;28;20042;-66
2022/03/26 03:08:13;;;;;;;62.33;28.60;;;;;;;5.60;81.49;103310.63;5026194;28;20017;-64
2022/03/26 03:10:38;;;;;;;65.72;28.88;;;;;;;5.56;81.66;103305.28;5026380;28;20373;-65
2022/03/26 03:13:04;;;;;;;67.40;33.03;;;;;;;5.51;82.03;103317.34;5027380;28;20052;-65
2022/03/26 03:15:29;;;;;;;62.83;30.48;;;;;;;5.47;82.42;103310.28;5026511;28;20026;-64
2022/03/26 03:17:54;;;;;;;70.13;32.60;;;;;;;5.46;82.90;103305.88;5026839;28;20030;-65
2022/03/26 03:20:20;;;;;;;77.13;34.00;;;;;;;5.47;83.18;103310.28;5024702;28;20029;-64
2022/03/26 03:22:45;;;;;;;69.13;32.50;;;;;;;5.50;83.16;103309.47;5026744;28;20026;-63
2022/03/26 03:25:10;;;;;;;66.95;30.80;;;;;;;5.52;83.18;103306.06;5025766;28;20060;-66
2022/03/26 03:27:37;;;;;;;74.53;32.40;;;;;;;5.51;82.86;103312.13;5026910;28;20034;-62
2022/03/26 03:30:04;;;;;;;74.78;32.92;;;;;;;5.49;83.23;103319.06;5027345;28;20338;-63
2022/03/26 03:32:29;;;;;;;84.13;34.55;;;;;;;5.41;83.76;103315.31;5007999;28;20029;-65
2022/03/26 03:34:56;;;;;;;82.22;36.50;;;;;;;5.39;84.08;103317.03;5026506;28;20100;-65
2022/03/26 03:37:21;;;;;;;75.00;33.67;;;;;;;5.43;83.87;103316.25;5024872;28;20034;-63
2022/03/26 03:39:47;;;;;;;78.20;34.15;;;;;;;5.46;84.10;103313.75;5027091;28;20408;-64
2022/03/26 03:42:12;;;;;;;81.97;35.10;;;;;;;5.47;84.08;103314.59;5025966;28;20490;-64
2022/03/26 03:44:37;;;;;;;82.75;35.20;;;;;;;5.45;84.28;103311.97;5008286;28;20507;-64
2022/03/26 03:47:03;;;;;;;79.78;35.42;;;;;;;5.50;84.13;103318.19;5027054;28;20067;-64
2022/03/26 03:49:31;;;;;;;81.30;35.95;;;;;;;5.50;84.15;103319.91;5023944;28;20515;-65
2022/03/26 03:52:00;;;;;;;79.65;34.38;;;;;;;5.43;84.33;103322.38;5026762;28;20030;-65
2022/03/26 03:54:25;;;;;;;89.32;38.00;;;;;;;5.43;84.49;103319.78;5025565;28;20049;-64
2022/03/26 03:56:51;;;;;;;87.25;37.50;;;;;;;5.50;84.48;103325.16;5026018;28;20032;-63
2022/03/26 03:59:16;;;;;;;76.85;34.63;;;;;;;5.48;84.41;103327.72;5025954;28;20026;-64
2022/03/26 04:01:42;;;;;;;95.72;37.42;;;;;;;5.44;84.73;103318.03;5025112;28;20025;-65
2022/03/26 04:04:07;;;;;;;81.20;35.95;;;;;;;5.42;84.61;103323.22;5023930;28;20507;-61
2022/03/26 04:06:32;;;;;;;88.22;38.65;;;;;;;5.38;84.64;103316.13;5007949;28;20075;-66
2022/03/26 04:08:58;;;;;;;97.40;38.63;;;;;;;5.38;84.94;103316.13;5025009;28;20032;-65
2022/03/26 04:11:23;;;;;;;90.07;38.35;;;;;;;5.35;84.79;103315.16;5026071;28;20096;-65
2022/03/26 04:13:52;;;;;;;84.65;38.63;;;;;;;5.35;84.59;103321.28;5024811;28;20033;-69
2022/03/26 04:16:18;;;;;;;;;;;;;;;5.36;85.01;103316.94;5026586;28;20022;-62
2022/03/26 04:18:43;;;;;;;74.75;34.85;;;;;;;5.34;85.21;103313.38;5024413;28;20340;-65
2022/03/26 04:21:08;;;;;;;85.22;38.45;;;;;;;5.36;85.15;103316.94;5025349;28;20080;-62
2022/03/26 04:23:34;;;;;;;96.47;39.65;;;;;;;5.40;85.06;103324.03;5026050;28;20843;-64
2022/03/26 04:25:59;;;;;;;96.63;40.55;;;;;;;5.43;85.19;103319.78;5025181;28;20120;-64
2022/03/26 04:28:25;;;;;;;82.97;37.63;;;;;;;5.44;85.29;103315.41;5024697;28;20167;-64
2022/03/26 04:30:51;;;;;;;91.10;39.88;;;;;;;5.47;85.34;103322.44;5025299;28;20480;-65
2022/03/26 04:33:16;;;;;;;87.30;39.85;;;;;;;5.45;85.52;103325.06;5023635;28;20030;-64
2022/03/26 04:35:41;;;;;;;95.55;40.55;;;;;;;5.48;85.34;103330.34;5026069;28;20030;-65
2022/03/26 04:38:07;;;;;;;95.07;40.42;;;;;;;5.50;85.26;103326.03;5024882;28;20156;-62
2022/03/26 04:40:33;;;;;;;94.32;39.25;;;;;;;5.47;85.31;103331.19;5007897;28;20369;-65
2022/03/26 04:42:58;;;;;;;103.10;42.28;;;;;;;5.46;85.53;103329.44;5025482;28;20021;-64
2022/03/26 04:45:23;;;;;;;100.45;43.08;;;;;;;5.40;85.97;103330.16;5023741;28;20697;-64
2022/03/26 04:47:49;;;;;;;106.15;44.60;;;;;;;5.44;86.08;103331.09;5024761;28;20029;-65
2022/03/26 04:50:14;;;;;;;105.85;45.67;;;;;;;5.43;86.07;103329.34;5024600;28;20026;-65
2022/03/26 04:52:40;;;;;;;91.43;40.63;;;;;;;5.40;86.06;103338.00;5024889;28;20021;-64
2022/03/26 04:55:09;;;;;;;100.90;44.00;;;;;;;5.41;85.92;103337.13;5026134;28;20022;-66
2022/03/26 04:57:42;;;;;;;102.07;43.05;;;;;;;5.40;86.12;103331.88;5024244;28;20396;-65
2022/03/26 05:00:09;;;;;;;102.15;44.22;;;;;;;5.41;86.02;103337.13;5025375;28;20527;-62
2022/03/26 05:02:37;;;;;;;106.70;44.83;;;;;;;5.33;86.12;103335.16;5024746;28;20510;-66
2022/03/26 05:05:03;;;;;;;108.55;45.47;;;;;;;5.30;86.46;103328.13;5024245;28;20065;-65
2022/03/26 05:07:47;;;;;;;111.05;43.22;;;;;;;5.27;86.53;103338.47;5024863;28;20476;-64
2022/03/26 05:10:23;;;;;;;102.93;42.22;;;;;;;5.25;86.47;103325.38;5023241;28;20064;-65
2022/03/26 05:12:50;;;;;;;108.30;43.10;;;;;;;5.23;86.61;103326.13;5024835;28;20041;-63
2022/03/26 05:15:17;;;;;;;101.97;42.42;;;;;;;5.16;86.78;103328.59;5022898;28;20559;-66
2022/03/26 05:17:43;;;;;;;103.63;42.90;;;;;;;5.15;86.86;103333.78;5024100;28;20100;-65
2022/03/26 05:20:09;;;;;;;101.25;41.78;;;;;;;5.07;86.97;103330.94;5024303;28;20022;-64
2022/03/26 05:22:35;;;;;;;113.65;44.67;;;;;;;5.03;87.01;103335.19;5006829;28;20037;-64
2022/03/26 05:25:00;;;;;;;113.78;44.65;;;;;;;5.00;87.15;103339.44;5009382;28;20055;-65
2022/03/26 05:27:26;;;;;;;113.10;44.28;;;;;;;4.92;87.45;103333.97;5007820;28;20045;-64
2022/03/26 05:29:52;;;;;;;103.72;40.60;;;;;;;4.86;87.41;103339.00;5025081;28;20376;-65
2022/03/26 05:32:17;;;;;;;99.47;40.90;;;;;;;4.84;87.50;103340.72;5023800;28;20101;-65
2022/03/26 05:34:44;;;;;;;111.82;43.03;;;;;;;4.80;87.65;103340.63;5022277;28;20025;-65
2022/03/26 05:37:09;;;;;;;106.63;41.78;;;;;;;4.78;87.86;103333.56;5024310;28;20421;-64
2022/03/26 05:39:35;;;;;;;98.03;38.00;;;;;;;4.75;87.83;103339.56;5025341;28;20674;-65
2022/03/26 05:42:00;;;;;;;101.32;39.70;;;;;;;4.75;88.06;103342.19;5024916;28;20029;-64
2022/03/26 05:44:25;;;;;;;107.93;45.17;;;;;;;4.77;88.40;103343.13;5024879;28;20144;-64
2022/03/26 05:46:51;;;;;;;110.40;44.80;;;;;;;4.78;88.79;103339.66;5025643;28;20403;-64
2022/03/26 05:49:16;;;;;;;117.43;45.53;;;;;;;4.79;88.84;103351.88;5024580;28;20021;-65
2022/03/26 05:51:43;;;;;;;123.18;48.13;;;;;;;4.80;88.87;103348.47;5024987;28;20087;-65
2022/03/26 05:54:08;;;;;;;120.07;47.40;;;;;;;4.82;88.65;103351.13;5025425;28;20104;-62
2022/03/26 05:56:36;;;;;;;124.35;47.38;;;;;;;4.85;88.97;103353.78;5025400;28;20120;-65
2022/03/26 05:59:03;;;;;;;111.10;43.40;;;;;;;4.88;88.62;103347.81;5025071;28;20781;-65
2022/03/26 06:01:30;;;;;;;124.15;47.72;;;;;;;4.95;88.82;103356.69;5007168;28;20104;-65
2022/03/26 06:03:55;;;;;;;118.45;44.58;;;;;;;4.98;88.59;103348.94;5024534;28;20033;-65
2022/03/26 06:06:21;;;;;;;118.00;43.65;;;;;;;5.01;88.64;103349.94;5024304;28;20108;-65
2022/03/26 06:08:46;;;;;;;121.97;46.55;;;;;;;5.06;88.79;103355.31;5025035;28;20014;-67
2022/03/26 06:11:11;;;;;;;124.70;47.63;;;;;;;5.09;88.71;103359.75;5024419;28;20411;-65
2022/03/26 06:13:37;;;;;;;104.55;40.75;;;;;;;5.12;88.84;103375.50;5023783;28;20037;-63
2022/03/26 06:16:02;;;;;;;113.07;43.45;;;;;;;5.14;88.67;103368.59;5025353;28;20071;-65
2022/03/26 06:18:27;;;;;;;124.75;49.65;;;;;;;5.15;89.02;103367.78;5023425;28;20510;-64
2022/03/26 06:20:53;;;;;;;115.35;45.22;;;;;;;5.17;88.77;103371.28;5024010;28;20026;-64
2022/03/26 06:23:18;;;;;;;128.65;49.35;;;;;;;5.18;88.73;103368.72;5021790;28;20029;-64
2022/03/26 06:25:43;;;;;;;135.35;52.03;;;;;;;5.22;88.60;103368.81;5024279;28;20025;-64
2022/03/26 06:28:09;;;;;;;128.68;52.65;;;;;;;5.22;88.51;103368.81;5026867;28;20361;-66
2022/03/26 06:30:35;;;;;;;119.57;49.25;;;;;;;5.25;88.18;103377.66;5028225;28;20529;-64
2022/03/26 06:33:00;;;;;;;124.32;49.28;;;;;;;5.28;88.10;103369.91;5027756;28;20063;-64
2022/03/26 06:35:27;;;;;;;119.38;48.05;;;;;;;5.32;87.70;103363.00;5009815;28;20029;-65
2022/03/26 06:37:53;;;;;;;112.85;45.90;;;;;;;5.34;87.33;103371.81;5025284;28;20722;-64
2022/03/26 06:40:19;;;;;;;102.65;43.33;;;;;;;5.40;87.13;103373.69;5018259;28;20014;-65
2022/03/26 06:42:44;;;;;;;111.05;46.47;;;;;;;5.44;86.96;103371.22;5017374;28;20029;-65
2022/03/26 06:45:09;;;;;;;92.32;39.17;;;;;;;5.53;86.17;103367.97;5020458;28;20021;-63
2022/03/26 06:47:35;;;;;;;109.25;49.15;;;;;;;5.56;85.87;103373.31;5009078;28;20037;-65
2022/03/26 06:50:00;;;;;;;108.38;48.00;;;;;;;5.62;85.65;103374.31;5026619;28;20058;-67
2022/03/26 06:52:25;;;;;;;111.88;47.13;;;;;;;5.67;85.49;103372.72;5020489;28;20141;-64
2022/03/26 06:54:52;;;;;;;104.13;44.47;;;;;;;5.74;85.17;103374.66;5008412;28;20400;-64
2022/03/26 06:57:17;;;;;;;103.40;44.83;;;;;;;5.82;84.83;103370.50;5020574;28;20065;-69
2022/03/26 06:59:42;;;;;;;90.63;39.80;;;;;;;5.94;84.49;103377.78;5009330;28;20488;-65
2022/03/26 07:02:08;;;;;;;91.45;41.60;;;;;;;6.03;84.19;103374.56;5019937;28;20575;-67
2022/03/26 07:04:33;;;;;;;103.25;45.17;;;;;;;6.13;83.79;103369.56;5017951;28;20048;-70
2022/03/26 07:06:58;;;;;;;85.82;39.08;;;;;;;6.30;83.22;103378.72;5015288;28;20109;-68
2022/03/26 07:09:24;;;;;;;101.10;47.97;;;;;;;6.47;83.37;103385.25;5007100;28;20377;-67
2022/03/26 07:11:50;;;;;;;107.40;51.90;;;;;;;6.63;83.67;103384.78;5026380;28;20073;-70
2022/03/26 07:14:16;;;;;;;105.85;47.97;;;;;;;6.76;83.41;103390.28;5025237;28;20103;-69
2022/03/26 07:16:42;;;;;;;109.32;50.30;;;;;;;6.91;83.10;103389.75;4994722;28;20065;-69
2022/03/26 07:19:07;;;;;;;101.57;49.50;;;;;;;7.06;82.77;103392.75;5006110;28;20045;-68
2022/03/26 07:21:33;;;;;;;106.72;50.42;;;;;;;7.25;82.15;103390.50;5007031;28;20029;-67
2022/03/26 07:23:58;;;;;;;99.32;46.90;;;;;;;7.33;81.63;103390.66;5009541;28;20474;-63
2022/03/26 07:26:23;;;;;;;108.65;48.00;;;;;;;7.42;81.16;103389.97;5009758;28;20181;-64
2022/03/26 07:28:50;;;;;;;98.22;45.97;;;;;;;7.55;80.90;103391.09;5007212;28;20049;-65
2022/03/26 07:31:15;;;;;;;100.78;45.58;;;;;;;7.75;79.77;103401.09;5006294;28;20073;-64
2022/03/26 07:33:40;;;;;;;91.80;46.25;;;;;;;7.87;79.10;103400.47;5006071;28;20104;-66
2022/03/26 07:36:06;;;;;;;90.20;42.35;;;;;;;7.95;78.97;103399.75;5005461;28;20099;-63
2022/03/26 07:38:31;;;;;;;86.13;42.85;;;;;;;8.08;78.32;103408.75;5016446;28;20057;-66
2022/03/26 07:40:57;;;;;;;85.35;39.05;;;;;;;8.26;77.46;103409.03;5026104;28;20430;-68
2022/03/26 07:43:23;;;;;;;88.90;43.42;;;;;;;8.33;76.68;103419.69;5019965;28;20499;-69
2022/03/26 07:45:48;;;;;;;77.28;38.58;;;;;;;8.49;75.78;103419.91;5012615;28;20514;-70
2022/03/26 07:48:13;;;;;;;81.15;41.30;;;;;;;8.46;74.04;103414.63;5024707;28;20061;-69
2022/03/26 07:50:39;;;;;;;75.28;35.85;;;;;;;8.56;73.57;103413.97;5025619;28;20086;-65
2022/03/26 07:53:04;;;;;;;91.32;39.92;;;;;;;8.66;73.15;103421.97;5023407;28;20111;-66
2022/03/26 07:55:30;;;;;;;80.15;37.30;;;;;;;8.80;73.23;103424.81;5007644;28;20079;-66
2022/03/26 07:57:55;;;;;;;76.97;37.40;;;;;;;8.90;73.11;103426.72;5025330;28;20099;-67
2022/03/26 08:00:21;;;;;;;80.45;41.33;;;;;;;8.96;72.82;103426.81;5025966;28;20022;-65
2022/03/26 08:02:46;;;;;;;81.75;39.15;;;;;;;9.05;72.78;103439.22;5024636;28;20379;-67
2022/03/26 08:05:12;;;;;;;77.28;38.83;;;;;;;9.11;72.33;103433.16;5020406;28;20108;-67
2022/03/26 08:07:37;;;;;;;76.15;37.72;;;;;;;9.25;71.09;103437.72;5024959;28;20561;-67
2022/03/26 08:10:03;;;;;;;68.28;34.78;;;;;;;9.41;71.19;103434.44;5005011;28;20026;-67
2022/03/26 08:12:28;;;;;;;72.70;34.10;;;;;;;9.59;70.32;103449.59;5009063;28;20285;-69
2022/03/26 08:14:53;;;;;;;67.25;32.72;;;;;;;9.75;69.43;103447.13;5026409;28;20045;-67
2022/03/26 08:17:19;;;;;;;68.40;35.08;;;;;;;9.77;68.82;103436.59;5024152;28;20120;-67
2022/03/26 08:19:45;;;;;;;65.40;32.40;;;;;;;9.91;68.57;103442.94;5025448;28;20465;-69
2022/03/26 08:22:10;;;;;;;74.07;34.63;;;;;;;9.92;67.49;103438.53;5008697;28;20068;-70
2022/03/26 08:24:36;;;;;;;66.65;32.88;;;;;;;10.01;67.26;103438.63;5021674;28;20449;-65
2022/03/26 08:27:03;;;;;;;70.40;33.75;;;;;;;10.10;67.44;103441.38;5025907;28;20528;-68
2022/03/26 08:29:28;;;;;;;67.47;34.05;;;;;;;10.19;67.36;103443.22;5024743;28;20045;-67
2022/03/26 08:31:54;;;;;;;74.05;35.38;;;;;;;10.28;67.55;103449.41;5025999;28;20392;-67
2022/03/26 08:34:20;;;;;;;66.60;34.75;;;;;;;10.41;67.68;103450.44;5022929;28;20075;-67
2022/03/26 08:36:45;;;;;;;71.65;35.20;;;;;;;10.47;68.08;103440.84;5025790;28;20099;-66
2022/03/26 08:39:11;;;;;;;73.03;36.65;;;;;;;10.51;67.76;103452.31;5023731;28;20025;-67
2022/03/26 08:41:37;;;;;;;70.60;34.80;;;;;;;10.70;66.94;103441.91;5023644;28;20025;-66
2022/03/26 08:44:02;;;;;;;71.70;36.05;;;;;;;10.86;66.68;103449.03;5006127;28;20039;-67
2022/03/26 08:46:28;;;;;;;72.22;36.97;;;;;;;10.89;66.04;103445.53;5006787;28;20034;-67
2022/03/26 08:48:53;;;;;;;71.28;32.88;;;;;;;11.04;65.89;103447.41;5012492;28;20026;-68
2022/03/26 08:51:18;;;;;;;61.72;29.83;;;;;;;11.17;65.47;103447.47;5023583;28;20365;-66
2022/03/26 08:53:44;;;;;;;61.67;32.00;;;;;;;11.15;65.30;103438.66;5022173;28;20387;-67
2022/03/26 08:56:09;;;;;;;61.55;32.13;;;;;;;11.24;64.72;103450.16;5023793;28;20553;-67
2022/03/26 08:58:35;;;;;;;49.05;26.98;;;;;;;11.40;64.63;103447.59;5023446;28;20417;-69
2022/03/26 09:01:01;;;;;;;65.90;32.55;;;;;;;11.47;64.48;103445.88;5018039;28;20532;-67
2022/03/26 09:03:26;;;;;;;69.65;33.55;;;;;;;11.57;64.17;103447.66;4997702;28;20651;-68
2022/03/26 09:05:52;;;;;;;55.85;30.67;;;;;;;11.69;63.91;103445.94;5002258;28;20439;-66
2022/03/26 09:08:18;;;;;;;56.17;30.00;;;;;;;11.85;63.90;103453.03;4999625;28;20025;-69
2022/03/26 09:10:44;;;;;;;58.63;30.30;;;;;;;11.76;64.21;103450.34;4996174;28;20079;-70
2022/03/26 09:13:10;;;;;;;66.97;31.30;;;;;;;11.76;63.81;103450.34;4996264;28;20045;-70
2022/03/26 09:15:36;;;;;;;58.42;31.98;;;;;;;11.85;63.51;103450.41;4994810;28;20207;-71
2022/03/26 09:18:02;;;;;;;55.70;30.80;;;;;;;12.03;63.61;103450.41;4998519;28;20427;-70
2022/03/26 09:20:27;;;;;;;53.42;28.10;;;;;;;12.18;62.68;103463.69;4996350;28;20378;-67
2022/03/26 09:22:53;;;;;;;57.38;29.30;;;;;;;12.26;63.00;103459.28;5001306;28;20563;-69
2022/03/26 09:25:19;;;;;;;61.58;29.83;;;;;;;12.41;62.63;103461.97;4995527;28;20040;-68
2022/03/26 09:27:44;;;;;;;53.42;27.48;;;;;;;12.55;62.44;103459.31;5004767;28;20519;-65
2022/03/26 09:30:10;;;;;;;49.72;27.15;;;;;;;12.50;61.84;103460.19;5023931;28;20036;-69
2022/03/26 09:32:36;;;;;;;47.13;24.23;;;;;;;12.47;61.00;103461.97;5016851;28;20046;-67
2022/03/26 09:35:01;;;;;;;51.00;25.42;;;;;;;12.53;60.81;103464.63;5016634;28;20048;-68
2022/03/26 09:37:27;;;;;;;47.00;24.65;;;;;;;12.47;60.28;103456.69;5025198;28;20345;-72
2022/03/26 09:39:54;;;;;;;43.40;23.30;;;;;;;12.57;60.15;103454.91;5023782;28;20029;-72
2022/03/26 09:42:22;;;;;;;42.55;23.20;;;;;;;12.74;59.72;103460.19;5025518;28;20116;-71
2022/03/26 09:44:50;;;;;;;44.17;22.95;;;;;;;12.80;59.80;103456.66;5024224;28;20041;-73
2022/03/26 09:47:15;;;;;;;46.00;22.85;;;;;;;12.94;59.48;103461.94;5024443;28;20048;-69
2022/03/26 09:49:41;;;;;;;42.90;22.70;;;;;;;13.11;58.92;103464.53;5017541;28;20037;-72
2022/03/26 09:52:07;;;;;;;42.10;23.55;;;;;;;13.11;59.18;103465.41;5014036;28;20022;-61
2022/03/26 09:54:33;;;;;;;44.78;23.80;;;;;;;13.12;59.17;103471.56;5020049;28;20030;-70
2022/03/26 09:56:59;;;;;;;38.92;20.90;;;;;;;13.17;58.86;103475.09;5024853;28;20029;-75
2022/03/26 09:59:25;;;;;;;43.50;21.08;;;;;;;13.18;58.57;103470.72;5025120;28;20021;-69
2022/03/26 10:01:50;;;;;;;43.85;22.15;;;;;;;13.25;58.88;103464.50;5026212;28;20479;-68
2022/03/26 10:04:17;;;;;;;38.28;20.80;;;;;;;13.31;58.87;103471.53;5028260;28;20034;-65
2022/03/26 10:06:50;;;;;;;39.83;23.25;;;;;;;13.39;58.60;103469.72;5025344;28;20030;-68
2022/03/26 10:09:38;;;;;;;45.38;22.45;;;;;;;13.34;58.66;103460.94;5024953;28;20083;-68
2022/03/26 10:12:12;;;;;;;42.05;22.23;;;;;;;13.55;58.85;103467.06;5029241;28;20069;-67
2022/03/26 10:14:44;;;;;;;46.33;23.23;;;;;;;13.60;57.90;103462.63;5021915;28;20025;-62
2022/03/26 10:17:19;;;;;;;45.30;23.98;;;;;;;13.81;57.56;103466.94;5028047;28;20025;-66
2022/03/26 10:19:50;;;;;;;34.13;19.08;;;;;;;13.78;56.19;103459.00;5027569;28;20533;-66
2022/03/26 10:22:23;;;;;;;34.28;19.60;;;;;;;13.78;56.14;103456.34;5028773;28;20021;-63
2022/03/26 10:24:49;;;;;;;42.20;22.95;;;;;;;13.77;56.53;103460.78;5026958;28;20034;-65
2022/03/26 10:27:15;;;;;;;45.40;21.83;;;;;;;13.82;56.81;103459.88;5027977;28;20152;-66
2022/03/26 10:29:51;;;;;;;42.20;23.02;;;;;;;13.98;56.54;103452.72;5026155;28;20104;-67
2022/03/26 10:32:45;;;;;;;49.47;24.30;;;;;;;14.03;56.00;103445.63;5027017;28;20594;-67
2022/03/26 10:35:27;;;;;;;53.47;26.15;;;;;;;14.11;56.55;103443.78;5026986;28;20047;-67
2022/03/26 10:38:01;;;;;;;45.28;25.35;;;;;;;14.29;54.99;103447.19;5027001;28;20025;-67
2022/03/26 10:40:34;;;;;;;48.90;25.67;;;;;;;14.38;53.05;103439.16;5027150;28;21240;-66
2022/03/26 10:43:01;;;;;;;49.30;27.42;;;;;;;14.31;54.46;103436.56;5026531;28;20049;-69
2022/03/26 10:45:27;;;;;;;54.55;27.83;;;;;;;14.44;54.87;103432.91;5017060;28;20715;-71
2022/03/26 10:47:54;;;;;;;54.72;30.33;;;;;;;14.34;55.06;103437.44;5026765;28;20021;-67
2022/03/26 10:50:19;;;;;;;69.57;32.78;;;;;;;14.58;53.04;103437.22;5027584;28;20434;-67
2022/03/26 10:52:45;;;;;;;68.43;34.92;;;;;;;14.70;53.09;103436.22;5027550;28;20075;-66
2022/03/26 10:55:14;;;;;;;77.57;34.63;;;;;;;14.66;52.90;103436.25;5027402;28;20022;-65
2022/03/26 10:57:41;;;;;;;68.82;32.53;;;;;;;14.95;52.22;103434.22;5027703;28;20021;-66
2022/03/26 11:00:09;;;;;;;65.25;33.88;;;;;;;15.08;52.41;103429.66;5009841;28;20052;-73
2022/03/26 11:02:34;;;;;;;74.45;36.05;;;;;;;15.10;53.19;103433.19;5018834;28;20026;-65
2022/03/26 11:04:59;;;;;;;65.57;33.50;;;;;;;15.17;51.69;103428.66;5019800;28;20116;-72
2022/03/26 11:07:25;;;;;;;67.25;34.30;;;;;;;15.32;51.24;103427.59;5016789;28;20030;-69
2022/03/26 11:09:51;;;;;;;60.85;31.85;;;;;;;15.31;50.16;103424.94;4993539;28;20041;-75